• Join FlightAware (Why Join?)
  • Login
  • US Flag 
07:18PM EST


 

Airport Tracker/Info


-or-


 

Live Flight TrackerFlight Track Log ✈ SWA3636 ✈ 09-Mar-2013 ✈ KSEA - KSMF

Flight Track Log - Related Links

Times and Time Zones

All times are in EST time to prevent confusion due to time zone crossing. See the SWA3636 flight status page for this flight to view local times or setup timezone preferences in your user account.

Time Position Orientation Groundspeed Altitude Reporting Facility
EST Latitude Longitude Course Direction KTS MPH feet Rate Location/Type
10:42PM 47.4392 -122.3083 179° South 146 168 1,700  Level Seattle Center
10:42PM 47.4253 -122.3081 179° South 154 177 2,700 3,886 Climbing Seattle Center
10:43PM 47.3722 -122.3078 180° South 187 215 7,400 4,264 Climbing Seattle Center
10:44PM 47.3103 -122.3042 178° South 227 261 11,300 3,719 Climbing Seattle Center
10:45PM 47.2228 -122.2947 176° South 320 368 14,900 3,570 Climbing Seattle Center
10:46PM 47.1267 -122.2822 175° South 350 403 18,500 3,719 Climbing Seattle Center
10:47PM 47.0036 -122.2683 176° South 373 429 22,400 3,689 Climbing Seattle Center
10:48PM 46.8944 -122.2558 176° South 396 456 26,000 3,124 Climbing Seattle Center
10:49PM 46.7786 -122.2411 175° South 420 483 28,700 2,479 Climbing Seattle Center
10:50PM 46.6583 -122.2283 176° South 437 503 31,000 2,231 Climbing Seattle Center
10:51PM 46.5325 -122.2125 175° South 455 524 33,200 2,331 Climbing Seattle Center
10:52PM 46.4072 -122.1958 175° South 457 526 35,700 2,182 Climbing Seattle Center
10:53PM 46.2811 -122.1825 176° South 460 529 37,600 1,835 Climbing Seattle Center
10:54PM 46.1386 -122.1650 175° South 462 532 39,400 1,636 Climbing Seattle Center
10:55PM 46.0097 -122.1489 175° South 464 534 40,900 545 Climbing Seattle Center
10:56PM 45.8842 -122.1336 175° South 450 518 40,500 -694 Descending Seattle Center
10:57PM 45.7572 -122.1208 176° South 455 524 39,500 -744 Descending Seattle Center
10:58PM 45.6319 -122.1072 176° South 452 520 39,000 -248 Descending Seattle Center
10:59PM 45.5061 -122.0906 175° South 453 521 39,000  Level Seattle Center
11:00PM 45.3822 -122.0786 176° South 448 516 39,000  Level Seattle Center
11:01PM 45.2558 -122.0633 175° South 453 521 39,000  Level Seattle Center
11:02PM 45.1286 -122.0483 175° South 455 524 39,000  Level Seattle Center
11:03PM 45.0025 -122.0325 175° South 455 524 39,000  Level Seattle Center
11:04PM 44.8756 -122.0181 175° South 456 525 39,000  Level Seattle Center
11:05PM 44.7556 -122.0047 175° South 456 525 39,000  Level Seattle Center
11:06PM 44.6300 -121.9897 175° South 453 521 39,000  Level Seattle Center
11:07PM 44.5039 -121.9761 176° South 452 520 39,000  Level Seattle Center
11:08PM 44.3775 -121.9619 175° South 455 524 39,000  Level Seattle Center
11:09PM 44.2517 -121.9492 176° South 452 520 39,000  Level Seattle Center
11:10PM 44.1269 -121.9350 175° South 449 517 39,000  Level Seattle Center
11:11PM 44.0003 -121.9208 175° South 453 521 39,000  Level Seattle Center
11:12PM 43.8769 -121.9069 175° South 446 513 39,000  Level Seattle Center
11:13PM 43.7497 -121.8967 177° South 455 524 39,000  Level Seattle Center
11:14PM 43.6267 -121.8833 176° South 445 512 39,000  Level Seattle Center
11:15PM 43.5039 -121.8711 176° South 442 509 39,000 -197 Level Seattle Center
11:16PM 43.3653 -121.8544 175° South 436 502 38,600 -645 Descending Seattle Center
11:17PM 43.2447 -121.8400 175° South 436 502 37,700 -793 Descending Seattle Center
11:18PM 43.1225 -121.8286 176° South 440 506 37,000 -347 Descending Seattle Center
11:19PM 42.9992 -121.8172 176° South 442 509 37,000  Level Seattle Center
11:20PM 42.8758 -121.8044 176° South 444 511 37,000  Level Seattle Center
11:21PM 42.7525 -121.7917 176° South 445 512 37,000  Level Seattle Center
11:22PM 42.6275 -121.7775 175° South 448 516 37,000  Level Seattle Center
11:23PM 42.5039 -121.7650 176° South 446 513 37,000  Level Seattle Center
11:24PM 42.3794 -121.7517 175° South 447 514 37,000  Level Seattle Center
11:25PM 42.2531 -121.7386 176° South 451 519 37,000  Level Seattle Center
11:26PM 42.1258 -121.7269 176° South 451 519 37,000  Level Seattle Center
11:27PM 41.9981 -121.7269 180° South 450 518 37,000  Level Seattle Center
11:28PM 41.8728 -121.7272 180° South 444 511 37,000  Level Seattle Center
11:29PM 41.7469 -121.7253 179° South 447 514 37,000  Level Seattle Center
11:30PM 41.6228 -121.7253 180° South 445 512 37,000  Level Seattle Center
11:31PM 41.4986 -121.7247 180° South 445 512 37,000  Level Seattle Center
11:32PM 41.3756 -121.7239 180° South 443 510 37,000  Level Seattle Center
11:33PM 41.2517 -121.7228 180° South 442 509 37,000  Level Seattle Center
11:34PM 41.1275 -121.7217 180° South 444 511 37,000  Level Seattle Center
11:35PM 41.0589 -121.7217 180° South 444 511 37,000  Level Oakland Center
11:36PM 40.9350 -121.7194 179° South 444 511 37,000  Level Oakland Center
11:37PM 40.8111 -121.7186 180° South 444 511 37,000  Level Oakland Center
11:38PM 40.6861 -121.7189 180° South 446 513 37,000 -942 Level Oakland Center
11:39PM 40.5611 -121.7186 180° South 446 513 35,100 -2,430 Descending Oakland Center
11:40PM 40.4353 -121.7164 179° South 448 516 32,100 -3,344 Descending Oakland Center
11:41PM 40.3069 -121.7072 177° South 457 526 28,300 -3,074 Descending Oakland Center
11:42PM 40.1814 -121.6958 176° South 449 517 25,900 -2,380 Descending Oakland Center
11:43PM 40.0633 -121.6864 176° South 427 491 23,500 -2,281 Descending Oakland Center
11:44PM 39.9514 -121.6764 176° South 406 467 21,300 -2,231 Descending Oakland Center
11:45PM 39.8436 -121.6664 176° South 391 450 19,000 -2,132 Descending Oakland Center
11:46PM 39.7389 -121.6578 176° South 381 438 17,000 -2,132 Descending Oakland Center
11:47PM 39.6372 -121.6497 177° South 370 426 14,700 -2,213 Descending Oakland Center
11:48PM 39.5392 -121.6406 176° South 358 412 12,500 -1,339 Descending Oakland Center
11:49PM 39.4392 -121.6508 185° South 332 382 12,000 -248 Descending Oakland Center
11:50PM 39.3475 -121.6661 187° South 331 381 12,000 -694 Level Oakland Center
11:51PM 39.2592 -121.6822 188° South 324 373 10,600 -1,438 Descending Oakland Center
11:52PM 39.1761 -121.6953 187° South 308 354 9,100 -1,475 Descending Oakland Center
11:53PM 39.0944 -121.7056 186° South 298 343 7,600 -1,488 Descending Oakland Center
11:54PM 39.0161 -121.7150 185° South 288 331 6,100 -1,537 Descending Oakland Center
11:55PM 38.9397 -121.7122 178° South 278 320 4,500 -1,537 Descending Oakland Center
11:56PM 38.8642 -121.7056 176° South 273 314 3,000 -744 Descending Oakland Center
11:57PM 38.7897 -121.7000 177° South 271 312 3,000  Level Oakland Center
11:58PM 38.7203 -121.6900 174° South 257 296 3,000 -198 Level Oakland Center
11:59PM 38.6539 -121.6803 173° South 246 283 2,600 -595 Descending Oakland Center
12:00AM 38.6033 -121.6603 163° South 209 241 1,800 -541 Descending Oakland Center
12:01AM 38.6114 -121.6033 80° East 176 203 1,500 -474 Descending Oakland Center
12:02AM 38.6333 -121.6000 North 122 140 1,200 -667 Descending Northern Cal TRACON
12:03AM 38.6667 -121.6000 360° North 112 129 600 -524 Descending Northern Cal TRACON
12:04AM 38.6833 -121.6000 360° North 113 130 100 -500 Descending Northern Cal TRACON